Time;durP1;ratioP1;P1;durP2;ratioP2;P2;SDS_P1;SDS_P2;PMS_P1;PMS_P2;Temp;Humidity;BMP_temperature;BMP_pressure;BME280_temperature;BME280_humidity;BME280_pressure;Samples;Min_cycle;Max_cycle;Signal;HPM_P1;HPM_P2
2022/04/01 00:02:07;;;;;;;14.17;12.87;;;;;;;;;;4919639;28;20199;-62
2022/04/01 00:04:34;;;;;;;13.63;12.33;;;;;;;;;;4922691;28;20253;-61
2022/04/01 00:06:59;;;;;;;13.40;12.10;;;;;;;;;;4917649;28;20299;-61
2022/04/01 00:09:27;;;;;;;14.53;12.53;;;;;;;;;;4912625;28;20593;-60
2022/04/01 00:11:53;;;;;;;13.87;12.57;;;;;;;;;;4911183;28;20207;-62
2022/04/01 00:14:19;;;;;;;13.80;12.50;;;;;;;;;;4919898;28;20224;-61
2022/04/01 00:16:44;;;;;;;13.23;12.00;;;;;;;;;;4921946;28;20199;-62
2022/04/01 00:19:12;;;;;;;13.43;12.13;;;;;;;;;;4918840;28;21804;-60
2022/04/01 00:21:38;;;;;;;12.63;11.47;;;;;;;;;;4909316;28;20198;-60
2022/04/01 00:24:04;;;;;;;12.67;11.47;;;;;;;;;;4919997;28;20296;-62
2022/04/01 00:26:30;;;;;;;12.23;11.03;;;;;;;;;;4915156;28;20638;-61
2022/04/01 00:28:56;;;;;;;11.60;10.50;;;;;;;;;;4928817;28;20883;-60
2022/04/01 00:31:22;;;;;;;12.13;11.00;;;;;;;;;;4923984;28;20275;-61
2022/04/01 00:34:15;;;;;;;11.70;10.60;;;;;;;;;;4922948;28;20196;-61
2022/04/01 00:36:34;;;;;;;11.10;10.10;;;;;;;;;;4923980;28;20689;-62
2022/04/01 00:39:00;;;;;;;10.20;9.30;;;;;;;;;;4923105;28;20235;-61
2022/04/01 00:41:26;;;;;;;11.10;10.10;;;;;;;;;;4926383;28;20271;-61
2022/04/01 00:44:15;;;;;;;11.50;10.40;;;;;;;;;;4914939;28;20200;-61
2022/04/01 00:46:45;;;;;;;11.17;10.17;;;;;;;;;;4920382;28;20206;-60
2022/04/01 00:49:11;;;;;;;10.00;9.17;;;;;;;;;;4915046;28;20661;-61
2022/04/01 00:51:37;;;;;;;10.87;9.87;;;;;;;;;;4922720;28;20874;-61
2022/04/01 00:54:03;;;;;;;10.23;9.33;;;;;;;;;;4922077;28;20667;-61
2022/04/01 00:56:30;;;;;;;10.43;9.53;;;;;;;;;;4926756;28;20271;-62
2022/04/01 00:58:57;;;;;;;10.03;9.17;;;;;;;;;;4928201;28;20283;-61
2022/04/01 01:01:23;;;;;;;9.90;9.00;;;;;;;;;;4926386;28;21479;-62
2022/04/01 01:03:50;;;;;;;9.47;8.67;;;;;;;;;;4924562;28;20583;-62
2022/04/01 01:06:16;;;;;;;9.93;9.03;;;;;;;;;;4913592;28;20736;-62
2022/04/01 01:08:42;;;;;;;9.77;8.93;;;;;;;;;;4914753;28;20247;-61
2022/04/01 01:11:08;;;;;;;9.30;8.50;;;;;;;;;;4929529;28;20235;-62
2022/04/01 01:13:34;;;;;;;9.07;8.27;;;;;;;;;;4926320;28;20195;-62
2022/04/01 01:16:00;;;;;;;8.90;8.10;;;;;;;;;;4928186;28;20279;-62
2022/04/01 01:18:26;;;;;;;8.70;8.00;;;;;;;;;;4920337;28;20180;-61
2022/04/01 01:20:52;;;;;;;8.93;8.10;;;;;;;;;;4909686;28;20198;-62
2022/04/01 01:23:18;;;;;;;9.30;8.50;;;;;;;;;;4914332;28;20200;-62
2022/04/01 01:25:45;;;;;;;9.63;8.80;;;;;;;;;;4919117;28;20250;-61
2022/04/01 01:28:11;;;;;;;8.47;7.67;;;;;;;;;;4923992;28;20207;-61
2022/04/01 01:30:37;;;;;;;8.27;7.57;;;;;;;;;;4922271;28;20250;-61
2022/04/01 01:33:04;;;;;;;8.67;7.87;;;;;;;;;;4924874;28;20750;-61
2022/04/01 01:35:30;;;;;;;8.73;8.00;;;;;;;;;;4917312;28;20208;-62
2022/04/01 01:37:56;;;;;;;8.40;7.60;;;;;;;;;;4922382;28;20254;-62
2022/04/01 01:40:23;;;;;;;9.00;8.20;;;;;;;;;;4924304;28;20227;-61
2022/04/01 01:42:49;;;;;;;8.93;8.13;;;;;;;;;;4927295;28;20232;-62
2022/04/01 01:45:15;;;;;;;9.53;8.53;;;;;;;;;;4917374;28;20213;-60
2022/04/01 01:47:42;;;;;;;9.40;8.60;;;;;;;;;;4917849;28;20570;-62
2022/04/01 01:55:37;;;;;;;9.60;8.80;;;;;;;;;;4925521;28;20250;-61
2022/04/01 01:58:03;;;;;;;9.50;8.57;;;;;;;;;;4924261;28;20289;-61
2022/04/01 02:00:29;;;;;;;9.37;8.53;;;;;;;;;;4916007;28;20692;-62
2022/04/01 02:02:56;;;;;;;9.77;8.90;;;;;;;;;;4921825;28;20200;-61
2022/04/01 02:05:22;;;;;;;9.57;8.77;;;;;;;;;;4928246;28;20229;-61
2022/04/01 02:07:48;;;;;;;9.10;8.20;;;;;;;;;;4928123;28;20258;-61
2022/04/01 02:10:15;;;;;;;9.97;9.07;;;;;;;;;;4927593;28;20207;-62
2022/04/01 02:12:42;;;;;;;9.47;8.67;;;;;;;;;;4928373;28;20199;-62
2022/04/01 02:15:10;;;;;;;9.77;8.87;;;;;;;;;;4924837;28;21167;-62
2022/04/01 02:17:37;;;;;;;9.80;8.80;;;;;;;;;;4924906;28;20255;-62
2022/04/01 02:20:05;;;;;;;9.47;8.57;;;;;;;;;;4919765;28;20653;-62
2022/04/01 02:22:31;;;;;;;10.10;9.07;;;;;;;;;;4922303;28;20613;-62
2022/04/01 02:24:57;;;;;;;9.50;8.60;;;;;;;;;;4926573;28;20199;-62
2022/04/01 02:27:24;;;;;;;9.40;8.60;;;;;;;;;;4930674;28;20269;-62
2022/04/01 02:29:50;;;;;;;9.60;8.60;;;;;;;;;;4930232;28;20610;-62
2022/04/01 02:32:16;;;;;;;9.30;8.50;;;;;;;;;;4915027;28;20249;-60
2022/04/01 02:34:42;;;;;;;9.23;8.40;;;;;;;;;;4900833;28;20219;-62
2022/04/01 02:37:09;;;;;;;10.47;9.47;;;;;;;;;;4909509;28;20202;-60
2022/04/01 02:39:35;;;;;;;9.60;8.70;;;;;;;;;;4922399;28;20607;-62
2022/04/01 02:42:01;;;;;;;9.70;8.70;;;;;;;;;;4929866;28;20200;-62
2022/04/01 02:44:27;;;;;;;9.50;8.70;;;;;;;;;;4930390;28;20216;-62
2022/04/01 02:46:53;;;;;;;8.63;7.93;;;;;;;;;;4903153;28;20224;-61
2022/04/01 02:49:19;;;;;;;9.17;8.37;;;;;;;;;;4907809;28;20195;-62
2022/04/01 02:51:46;;;;;;;8.77;7.97;;;;;;;;;;4906833;28;20207;-62
2022/04/01 02:54:12;;;;;;;8.70;7.90;;;;;;;;;;4916813;28;20672;-61
2022/04/01 02:56:38;;;;;;;8.77;7.87;;;;;;;;;;4925347;28;20620;-62
2022/04/01 02:59:08;;;;;;;8.30;7.53;;;;;;;;;;4930907;28;20196;-60
2022/04/01 03:01:35;;;;;;;8.50;7.70;;;;;;;;;;4925674;28;20248;-62
2022/04/01 03:04:01;;;;;;;9.53;8.00;;;;;;;;;;4927775;28;20196;-62
2022/04/01 03:06:27;;;;;;;8.60;7.80;;;;;;;;;;4904239;28;20271;-62
2022/04/01 03:08:53;;;;;;;9.07;7.73;;;;;;;;;;4897873;28;20318;-61
2022/04/01 03:11:19;;;;;;;8.80;7.73;;;;;;;;;;4903095;28;20909;-62
2022/04/01 03:13:45;;;;;;;8.23;7.50;;;;;;;;;;4916757;28;20203;-62
2022/04/01 03:16:12;;;;;;;8.10;7.30;;;;;;;;;;4917892;28;20467;-62
2022/04/01 03:18:40;;;;;;;10.30;7.43;;;;;;;;;;4923257;28;20188;-62
2022/04/01 03:21:07;;;;;;;8.47;7.77;;;;;;;;;;4924401;28;20200;-62
2022/04/01 03:23:32;;;;;;;8.23;7.43;;;;;;;;;;4921733;28;20533;-61
2022/04/01 03:25:58;;;;;;;8.07;7.27;;;;;;;;;;4903012;28;20234;-62
2022/04/01 03:28:24;;;;;;;7.63;6.83;;;;;;;;;;4911583;28;21343;-62
2022/04/01 03:30:51;;;;;;;8.10;7.30;;;;;;;;;;4912604;28;20235;-61
2022/04/01 03:33:17;;;;;;;8.37;7.40;;;;;;;;;;4924385;28;20212;-62
2022/04/01 03:35:44;;;;;;;7.80;7.10;;;;;;;;;;4928761;28;20908;-62
2022/04/01 03:38:11;;;;;;;7.60;6.90;;;;;;;;;;4934931;28;20187;-60
2022/04/01 03:40:38;;;;;;;7.40;6.70;;;;;;;;;;4926944;28;20195;-60
2022/04/01 03:43:05;;;;;;;7.07;6.47;;;;;;;;;;4927216;28;20568;-62
2022/04/01 03:45:33;;;;;;;7.70;7.00;;;;;;;;;;4923950;28;20207;-62
2022/04/01 03:48:00;;;;;;;7.60;6.80;;;;;;;;;;4915081;28;20255;-62
2022/04/01 03:50:30;;;;;;;8.57;6.93;;;;;;;;;;4917471;28;20271;-61
2022/04/01 03:53:01;;;;;;;8.40;6.90;;;;;;;;;;4924452;28;20192;-61
2022/04/01 03:55:27;;;;;;;7.23;6.20;;;;;;;;;;4927823;28;20203;-62
2022/04/01 03:57:53;;;;;;;6.67;6.07;;;;;;;;;;4927617;28;20198;-62
2022/04/01 04:00:19;;;;;;;7.03;6.37;;;;;;;;;;4924569;28;20319;-62
2022/04/01 04:02:46;;;;;;;6.30;5.70;;;;;;;;;;4918727;28;20231;-61
2022/04/01 04:05:13;;;;;;;7.33;6.63;;;;;;;;;;4922341;28;20207;-61
2022/04/01 04:07:39;;;;;;;7.37;5.97;;;;;;;;;;4928592;28;20587;-61
2022/04/01 04:10:06;;;;;;;6.87;6.17;;;;;;;;;;4926312;28;20191;-63
2022/04/01 04:12:32;;;;;;;7.40;6.30;;;;;;;;;;4926863;28;20192;-62
2022/04/01 04:14:58;;;;;;;7.13;6.20;;;;;;;;;;4933300;28;20723;-62
2022/04/01 04:17:31;;;;;;;7.77;6.03;;;;;;;;;;4916935;28;20189;-62
2022/04/01 04:19:59;;;;;;;6.23;5.63;;;;;;;;;;4921204;28;20200;-61
2022/04/01 04:22:29;;;;;;;6.27;5.67;;;;;;;;;;4914319;28;20736;-62
2022/04/01 04:24:58;;;;;;;6.37;5.67;;;;;;;;;;4914807;28;20203;-61
2022/04/01 04:27:28;;;;;;;6.97;6.27;;;;;;;;;;4915288;28;20394;-61
2022/04/01 04:29:55;;;;;;;6.93;6.23;;;;;;;;;;4927886;28;20649;-62
2022/04/01 04:32:26;;;;;;;6.97;6.37;;;;;;;;;;4922576;28;20192;-62
2022/04/01 04:34:52;;;;;;;6.70;6.10;;;;;;;;;;4909382;28;20216;-61
2022/04/01 04:37:19;;;;;;;9.47;6.60;;;;;;;;;;4918987;28;20202;-61
2022/04/01 04:39:45;;;;;;;6.47;5.87;;;;;;;;;;4923653;28;20829;-61
2022/04/01 04:42:11;;;;;;;6.67;6.10;;;;;;;;;;4927771;28;20196;-62
2022/04/01 04:44:37;;;;;;;7.30;6.30;;;;;;;;;;4924475;28;20200;-61
2022/04/01 04:47:05;;;;;;;7.40;5.87;;;;;;;;;;4929703;28;20254;-60
2022/04/01 04:49:31;;;;;;;7.17;6.37;;;;;;;;;;4920679;28;20208;-60
2022/04/01 04:51:58;;;;;;;7.20;6.47;;;;;;;;;;4922393;28;20692;-61
2022/04/01 04:54:26;;;;;;;7.73;6.10;;;;;;;;;;4913607;28;20204;-59
2022/04/01 04:56:55;;;;;;;6.50;5.90;;;;;;;;;;4922249;28;20200;-59
2022/04/01 04:59:22;;;;;;;5.77;5.27;;;;;;;;;;4925341;28;20206;-62
2022/04/01 05:02:05;;;;;;;7.23;5.33;;;;;;;;;;4916198;28;20196;-62
2022/04/01 05:04:34;;;;;;;6.93;5.67;;;;;;;;;;4921518;28;20196;-61
2022/04/01 05:07:20;;;;;;;5.90;5.30;;;;;;;;;;4897943;28;20771;-60
2022/04/01 05:09:49;;;;;;;7.10;6.27;;;;;;;;;;4895065;28;20211;-62
2022/04/01 05:12:16;;;;;;;6.17;5.13;;;;;;;;;;4912104;28;20589;-62
2022/04/01 05:14:49;;;;;;;6.70;6.07;;;;;;;;;;4920507;28;20225;-61
2022/04/01 05:17:15;;;;;;;6.30;5.70;;;;;;;;;;4907867;28;20202;-62
2022/04/01 05:19:42;;;;;;;9.13;5.53;;;;;;;;;;4914547;28;20203;-62
2022/04/01 05:22:09;;;;;;;7.03;5.83;;;;;;;;;;4930292;28;20191;-62
2022/04/01 05:24:34;;;;;;;5.90;5.40;;;;;;;;;;4933939;28;20222;-63
2022/04/01 05:27:02;;;;;;;6.30;5.70;;;;;;;;;;4933726;28;20204;-62
2022/04/01 05:29:31;;;;;;;6.80;5.83;;;;;;;;;;4930824;28;20686;-63
2022/04/01 05:32:07;;;;;;;6.63;5.90;;;;;;;;;;4926639;28;20230;-62
2022/04/01 05:34:34;;;;;;;7.97;5.70;;;;;;;;;;4923205;28;20261;-62
2022/04/01 05:37:00;;;;;;;6.93;6.23;;;;;;;;;;4926776;28;20199;-62
2022/04/01 05:39:28;;;;;;;6.83;5.73;;;;;;;;;;4935319;28;20646;-63
2022/04/01 05:41:53;;;;;;;5.90;5.40;;;;;;;;;;4929676;28;20217;-61
2022/04/01 05:44:20;;;;;;;8.93;6.43;;;;;;;;;;4927788;28;20193;-62
2022/04/01 05:46:46;;;;;;;5.67;5.17;;;;;;;;;;4926256;28;20226;-62
2022/04/01 05:49:13;;;;;;;6.03;5.53;;;;;;;;;;4919938;28;22220;-62
2022/04/01 05:51:39;;;;;;;6.37;5.17;;;;;;;;;;4921246;28;20654;-63
2022/04/01 05:54:05;;;;;;;6.80;5.30;;;;;;;;;;4927486;28;20275;-61
2022/04/01 05:56:35;;;;;;;5.77;5.30;;;;;;;;;;4927017;28;20271;-63
2022/04/01 05:59:01;;;;;;;6.30;5.67;;;;;;;;;;4935062;28;20298;-62
2022/04/01 06:01:40;;;;;;;6.47;5.87;;;;;;;;;;4935073;28;20753;-63
2022/04/01 06:04:21;;;;;;;6.30;5.70;;;;;;;;;;4930407;28;20243;-62
2022/04/01 06:06:48;;;;;;;6.27;5.70;;;;;;;;;;4935449;28;20596;-62
2022/04/01 06:09:34;;;;;;;7.20;5.53;;;;;;;;;;4939016;28;20631;-62
2022/04/01 06:12:22;;;;;;;5.80;5.30;;;;;;;;;;4928230;28;20196;-62
2022/04/01 06:14:54;;;;;;;5.90;5.40;;;;;;;;;;4930521;28;20230;-62
2022/04/01 06:17:24;;;;;;;6.03;5.53;;;;;;;;;;4927884;28;20192;-62
2022/04/01 06:19:50;;;;;;;5.23;4.83;;;;;;;;;;4931699;28;20973;-62
2022/04/01 06:22:22;;;;;;;6.13;5.63;;;;;;;;;;4919648;28;20207;-61
2022/04/01 06:25:02;;;;;;;5.40;4.90;;;;;;;;;;4925740;28;20195;-62
2022/04/01 06:27:30;;;;;;;6.00;5.40;;;;;;;;;;4927282;28;20202;-62
2022/04/01 06:30:05;;;;;;;6.00;5.50;;;;;;;;;;4935691;28;20624;-62
2022/04/01 06:32:50;;;;;;;5.97;5.47;;;;;;;;;;4934845;28;20187;-63
2022/04/01 06:35:17;;;;;;;5.83;5.20;;;;;;;;;;4933701;28;20215;-62
2022/04/01 06:37:58;;;;;;;5.57;5.07;;;;;;;;;;4931157;28;20203;-63
2022/04/01 06:40:25;;;;;;;5.60;5.10;;;;;;;;;;4935434;28;20234;-63
2022/04/01 06:42:53;;;;;;;5.90;5.40;;;;;;;;;;4932002;28;20208;-62
2022/04/01 06:45:20;;;;;;;5.63;5.10;;;;;;;;;;4922938;28;20204;-62
2022/04/01 06:47:46;;;;;;;5.43;4.97;;;;;;;;;;4923522;28;20197;-62
2022/04/01 06:50:12;;;;;;;5.73;5.23;;;;;;;;;;4929582;28;20187;-61
2022/04/01 06:52:39;;;;;;;5.10;4.67;;;;;;;;;;4922322;28;20247;-62
2022/04/01 06:55:10;;;;;;;10.60;5.50;;;;;;;;;;4927815;28;20216;-62
2022/04/01 06:57:36;;;;;;;5.10;4.70;;;;;;;;;;4929586;28;20724;-63
2022/04/01 07:00:08;;;;;;;5.67;5.17;;;;;;;;;;4925513;28;20202;-62
2022/04/01 07:02:34;;;;;;;5.67;5.17;;;;;;;;;;4922629;28;21841;-63
2022/04/01 07:05:00;;;;;;;5.17;4.67;;;;;;;;;;4930738;28;20662;-61
2022/04/01 07:07:26;;;;;;;5.53;5.00;;;;;;;;;;4928085;28;20236;-62
2022/04/01 07:09:52;;;;;;;4.77;4.37;;;;;;;;;;4927894;28;20718;-62
2022/04/01 07:12:19;;;;;;;4.77;4.37;;;;;;;;;;4935236;28;20606;-61
2022/04/01 07:14:45;;;;;;;5.20;4.80;;;;;;;;;;4934191;28;20676;-63
2022/04/01 07:17:11;;;;;;;5.30;4.80;;;;;;;;;;4936046;28;20500;-62
2022/04/01 07:19:37;;;;;;;5.03;4.63;;;;;;;;;;4935151;28;20191;-62
2022/04/01 07:22:03;;;;;;;5.03;4.60;;;;;;;;;;4932666;28;20837;-61
2022/04/01 07:24:30;;;;;;;4.90;4.50;;;;;;;;;;4929239;28;20320;-62
2022/04/01 07:26:56;;;;;;;5.07;4.53;;;;;;;;;;4933779;28;20196;-63
2022/04/01 07:29:22;;;;;;;4.20;3.90;;;;;;;;;;4934981;28;20669;-62
2022/04/01 07:32:37;;;;;;;4.77;4.37;;;;;;;;;;4936941;28;20602;-62
2022/04/01 07:34:38;;;;;;;4.37;3.93;;;;;;;;;;4929428;28;20227;-62
2022/04/01 07:37:08;;;;;;;4.90;4.50;;;;;;;;;;4930762;28;20634;-62
2022/04/01 07:39:34;;;;;;;4.50;4.10;;;;;;;;;;4934728;28;20577;-62
2022/04/01 07:42:00;;;;;;;4.97;4.57;;;;;;;;;;4939758;28;20190;-61
2022/04/01 07:44:26;;;;;;;5.03;4.63;;;;;;;;;;4933975;28;20279;-62
2022/04/01 07:46:52;;;;;;;4.53;3.90;;;;;;;;;;4929550;28;20267;-62
2022/04/01 07:49:18;;;;;;;4.60;4.20;;;;;;;;;;4934959;28;20190;-62
2022/04/01 07:51:44;;;;;;;4.60;4.20;;;;;;;;;;4938400;28;20196;-61
2022/04/01 07:54:11;;;;;;;5.10;4.43;;;;;;;;;;4932060;28;20204;-62
2022/04/01 07:56:37;;;;;;;5.67;4.70;;;;;;;;;;4931682;28;20796;-61
2022/04/01 07:59:04;;;;;;;4.83;4.43;;;;;;;;;;4928818;28;20191;-62
2022/04/01 08:01:30;;;;;;;5.00;4.50;;;;;;;;;;4923556;28;20199;-61
2022/04/01 08:03:56;;;;;;;5.03;4.53;;;;;;;;;;4918813;28;20625;-61
2022/04/01 08:06:22;;;;;;;4.87;4.47;;;;;;;;;;4927371;28;20221;-62
2022/04/01 08:08:48;;;;;;;5.33;4.87;;;;;;;;;;4933661;28;20327;-61
2022/04/01 08:11:15;;;;;;;4.30;4.00;;;;;;;;;;4925166;28;20220;-62
2022/04/01 08:13:41;;;;;;;4.70;4.30;;;;;;;;;;4925892;28;20568;-61
2022/04/01 08:16:08;;;;;;;5.17;4.63;;;;;;;;;;4929295;28;20224;-63
2022/04/01 08:18:34;;;;;;;4.97;4.57;;;;;;;;;;4929811;28;20239;-63
2022/04/01 08:21:00;;;;;;;5.30;4.80;;;;;;;;;;4930417;28;20189;-62
2022/04/01 08:23:26;;;;;;;5.53;5.03;;;;;;;;;;4934789;28;20188;-62
2022/04/01 08:25:52;;;;;;;5.17;4.77;;;;;;;;;;4934552;28;20196;-62
2022/04/01 08:28:18;;;;;;;5.60;5.10;;;;;;;;;;4936841;28;20752;-61
2022/04/01 08:30:44;;;;;;;5.63;5.13;;;;;;;;;;4934939;28;20217;-63
2022/04/01 08:33:10;;;;;;;5.63;5.23;;;;;;;;;;4932944;28;20556;-62
2022/04/01 08:35:37;;;;;;;5.33;4.90;;;;;;;;;;4928833;28;20223;-62
2022/04/01 08:38:03;;;;;;;5.27;4.87;;;;;;;;;;4935567;28;20208;-61
2022/04/01 08:40:29;;;;;;;5.83;5.27;;;;;;;;;;4935718;28;20676;-61
2022/04/01 08:42:55;;;;;;;5.83;5.33;;;;;;;;;;4937703;28;20192;-62
2022/04/01 08:45:21;;;;;;;6.00;5.37;;;;;;;;;;4933761;28;20195;-63
2022/04/01 08:47:48;;;;;;;8.07;5.80;;;;;;;;;;4928980;28;20581;-63
2022/04/01 08:50:13;;;;;;;6.53;5.73;;;;;;;;;;4924534;28;20208;-62
2022/04/01 08:52:40;;;;;;;5.37;4.87;;;;;;;;;;4926302;28;20207;-61
2022/04/01 08:55:07;;;;;;;5.83;5.33;;;;;;;;;;4932795;28;20238;-61
2022/04/01 08:57:40;;;;;;;5.80;5.30;;;;;;;;;;4929656;28;20206;-62
2022/04/01 09:00:12;;;;;;;5.87;5.23;;;;;;;;;;4938098;28;20641;-61
2022/04/01 09:02:38;;;;;;;5.87;5.37;;;;;;;;;;4933311;28;21365;-62
2022/04/01 09:05:04;;;;;;;5.67;5.10;;;;;;;;;;4934312;28;20198;-63
2022/04/01 09:07:30;;;;;;;5.70;5.20;;;;;;;;;;4924559;28;21558;-63
2022/04/01 09:10:03;;;;;;;5.60;5.10;;;;;;;;;;4925338;28;20222;-61
2022/04/01 09:12:29;;;;;;;5.53;5.03;;;;;;;;;;4926565;28;20602;-63
2022/04/01 09:14:55;;;;;;;5.70;5.20;;;;;;;;;;4927397;28;20209;-61
2022/04/01 09:17:22;;;;;;;5.40;4.93;;;;;;;;;;4931692;28;20196;-63
2022/04/01 09:19:48;;;;;;;5.40;4.90;;;;;;;;;;4925972;28;20204;-61
2022/04/01 09:22:24;;;;;;;7.10;4.50;;;;;;;;;;4927794;28;20222;-62
2022/04/01 09:25:00;;;;;;;4.73;4.33;;;;;;;;;;4928686;28;20664;-62
2022/04/01 09:27:45;;;;;;;5.20;4.70;;;;;;;;;;4927931;28;20314;-61
2022/04/01 09:30:14;;;;;;;4.87;4.47;;;;;;;;;;4930650;28;20207;-62
2022/04/01 09:32:40;;;;;;;4.57;4.17;;;;;;;;;;4934402;28;20547;-62
2022/04/01 09:35:07;;;;;;;4.80;4.33;;;;;;;;;;4934933;28;20215;-63
2022/04/01 09:37:36;;;;;;;4.80;4.17;;;;;;;;;;4926676;28;20200;-62
2022/04/01 09:40:02;;;;;;;4.90;4.40;;;;;;;;;;4933706;28;20199;-62
2022/04/01 09:42:28;;;;;;;5.17;4.33;;;;;;;;;;4936541;28;20925;-61
2022/04/01 09:44:57;;;;;;;4.13;3.83;;;;;;;;;;4937860;28;20207;-62
2022/04/01 09:47:23;;;;;;;4.17;3.77;;;;;;;;;;4926616;28;20261;-62
2022/04/01 09:49:52;;;;;;;4.60;4.17;;;;;;;;;;4927916;28;20197;-62
2022/04/01 09:52:20;;;;;;;6.97;4.07;;;;;;;;;;4928100;28;20267;-62
2022/04/01 09:54:53;;;;;;;4.53;4.10;;;;;;;;;;4924431;28;20808;-62
2022/04/01 09:57:19;;;;;;;5.50;4.00;;;;;;;;;;4921101;28;20180;-62
2022/04/01 09:59:46;;;;;;;5.70;4.20;;;;;;;;;;4923256;28;20204;-62
2022/04/01 10:02:12;;;;;;;6.70;4.20;;;;;;;;;;4924453;28;20526;-60
2022/04/01 10:04:38;;;;;;;5.10;3.77;;;;;;;;;;4935153;28;20204;-62
2022/04/01 10:07:04;;;;;;;4.70;4.30;;;;;;;;;;4932823;28;20270;-62
2022/04/01 10:09:30;;;;;;;4.77;4.27;;;;;;;;;;4926524;28;20652;-62
2022/04/01 10:11:56;;;;;;;5.03;4.10;;;;;;;;;;4928088;28;20192;-62
2022/04/01 10:14:24;;;;;;;4.70;4.30;;;;;;;;;;4933193;28;20569;-62
2022/04/01 10:16:50;;;;;;;6.00;4.70;;;;;;;;;;4932631;28;20255;-60
2022/04/01 10:19:25;;;;;;;5.17;4.67;;;;;;;;;;4934998;28;20397;-61
2022/04/01 10:21:51;;;;;;;6.97;4.10;;;;;;;;;;4922853;28;20279;-61
2022/04/01 10:24:22;;;;;;;5.03;4.20;;;;;;;;;;4930953;28;20246;-62
2022/04/01 10:26:57;;;;;;;4.43;4.03;;;;;;;;;;4929509;28;20191;-62
2022/04/01 10:29:24;;;;;;;4.13;3.73;;;;;;;;;;4932818;28;20194;-62
2022/04/01 10:31:54;;;;;;;5.67;4.83;;;;;;;;;;4935569;28;20227;-61
2022/04/01 10:34:24;;;;;;;4.70;4.30;;;;;;;;;;4931170;28;20607;-62
2022/04/01 10:36:53;;;;;;;3.87;3.57;;;;;;;;;;4932510;28;20615;-62
2022/04/01 10:39:19;;;;;;;5.13;4.17;;;;;;;;;;4938347;28;20694;-62
2022/04/01 10:42:04;;;;;;;4.63;4.00;;;;;;;;;;4933661;28;20243;-63
2022/04/01 10:44:49;;;;;;;4.67;4.20;;;;;;;;;;4933117;28;20195;-62
2022/04/01 10:47:15;;;;;;;4.77;4.17;;;;;;;;;;4934432;28;20207;-63
2022/04/01 10:52:26;;;;;;;4.03;3.73;;;;;;;;;;4937375;28;20213;-61
2022/04/01 10:55:05;;;;;;;4.40;4.00;;;;;;;;;;4934638;28;20216;-62
2022/04/01 10:57:32;;;;;;;3.97;3.57;;;;;;;;;;4928063;28;20917;-62
2022/04/01 10:59:59;;;;;;;4.87;3.77;;;;;;;;;;4929118;28;20203;-62
2022/04/01 11:02:25;;;;;;;4.23;3.80;;;;;;;;;;4931401;28;20196;-62
2022/04/01 11:04:52;;;;;;;4.20;3.77;;;;;;;;;;4927428;28;20198;-62
2022/04/01 11:07:23;;;;;;;4.00;3.70;;;;;;;;;;4926260;28;20681;-62
2022/04/01 11:09:56;;;;;;;4.30;3.90;;;;;;;;;;4928344;28;20203;-62
2022/04/01 11:12:22;;;;;;;4.20;3.80;;;;;;;;;;4932934;28;20287;-62
2022/04/01 11:14:57;;;;;;;3.90;3.60;;;;;;;;;;4927304;28;20423;-62
2022/04/01 11:17:23;;;;;;;4.10;3.70;;;;;;;;;;4918366;28;20222;-65
2022/04/01 11:20:07;;;;;;;5.13;4.13;;;;;;;;;;4922610;28;20285;-61
2022/04/01 11:22:38;;;;;;;5.87;4.23;;;;;;;;;;4928733;28;20192;-60
2022/04/01 11:25:04;;;;;;;4.27;3.87;;;;;;;;;;4929526;28;20689;-62
2022/04/01 11:27:30;;;;;;;5.80;4.00;;;;;;;;;;4934411;28;20203;-60
2022/04/01 11:30:13;;;;;;;5.50;4.33;;;;;;;;;;4927437;28;20218;-61
2022/04/01 11:32:40;;;;;;;5.10;4.07;;;;;;;;;;4927952;28;20254;-62
2022/04/01 11:35:06;;;;;;;4.33;3.73;;;;;;;;;;4918580;28;20689;-62
2022/04/01 11:37:35;;;;;;;5.40;3.73;;;;;;;;;;4934552;28;20192;-62
2022/04/01 11:40:08;;;;;;;4.27;3.87;;;;;;;;;;4914509;28;20218;-62
2022/04/01 11:42:33;;;;;;;4.17;3.77;;;;;;;;;;4918932;28;20330;-62
2022/04/01 11:44:59;;;;;;;4.53;4.00;;;;;;;;;;4924555;28;20199;-62
2022/04/01 11:47:37;;;;;;;4.77;3.57;;;;;;;;;;4917107;28;20945;-61
2022/04/01 11:50:07;;;;;;;4.10;3.70;;;;;;;;;;4925954;28;20192;-62
2022/04/01 11:52:38;;;;;;;5.47;4.17;;;;;;;;;;4923794;28;20207;-62
2022/04/01 11:55:10;;;;;;;6.03;3.93;;;;;;;;;;4926221;28;20235;-60
2022/04/01 11:57:36;;;;;;;4.17;3.77;;;;;;;;;;4925260;28;20191;-62
2022/04/01 12:00:02;;;;;;;4.23;3.43;;;;;;;;;;4925557;28;20195;-62
2022/04/01 12:02:29;;;;;;;4.50;4.10;;;;;;;;;;4926239;28;20263;-61
2022/04/01 12:04:55;;;;;;;4.20;3.70;;;;;;;;;;4924255;28;20393;-61
2022/04/01 12:10:17;;;;;;;5.60;3.77;;;;;;;;;;4915835;28;20291;-62
2022/04/01 12:12:51;;;;;;;4.87;3.57;;;;;;;;;;4916901;28;20196;-60
2022/04/01 12:15:17;;;;;;;4.53;3.93;;;;;;;;;;4912676;28;20225;-61
2022/04/01 12:17:49;;;;;;;4.37;3.93;;;;;;;;;;4920404;28;20192;-60
2022/04/01 12:20:15;;;;;;;5.53;3.73;;;;;;;;;;4924577;28;20669;-62
2022/04/01 12:22:41;;;;;;;3.90;3.60;;;;;;;;;;4917695;28;20196;-62
2022/04/01 12:25:08;;;;;;;4.00;3.60;;;;;;;;;;4910506;28;20791;-62
2022/04/01 12:27:34;;;;;;;4.63;3.90;;;;;;;;;;4912297;28;20230;-62
2022/04/01 12:30:00;;;;;;;4.50;4.10;;;;;;;;;;4922378;28;20635;-62
2022/04/01 12:32:26;;;;;;;4.53;3.97;;;;;;;;;;4916210;28;20214;-60
2022/04/01 12:34:52;;;;;;;4.10;3.63;;;;;;;;;;4915043;28;20665;-61
2022/04/01 12:37:18;;;;;;;4.50;4.10;;;;;;;;;;4908916;28;20306;-62
2022/04/01 12:39:45;;;;;;;4.00;3.60;;;;;;;;;;4918205;28;20200;-60
2022/04/01 12:42:11;;;;;;;4.93;4.10;;;;;;;;;;4921513;28;20259;-62
2022/04/01 12:44:41;;;;;;;3.70;3.40;;;;;;;;;;4923703;28;21069;-60
2022/04/01 12:47:07;;;;;;;4.10;3.70;;;;;;;;;;4921486;28;20711;-60
2022/04/01 12:49:34;;;;;;;4.30;3.90;;;;;;;;;;4917503;28;20841;-61
2022/04/01 12:52:01;;;;;;;4.33;3.93;;;;;;;;;;4926785;28;20198;-62
2022/04/01 12:54:28;;;;;;;4.13;3.60;;;;;;;;;;4919568;28;20807;-61
2022/04/01 12:56:55;;;;;;;4.20;3.80;;;;;;;;;;4931072;28;20219;-61
2022/04/01 12:59:24;;;;;;;4.00;3.57;;;;;;;;;;4921412;28;20188;-61
2022/04/01 13:02:00;;;;;;;3.70;3.40;;;;;;;;;;4918092;28;20209;-62
2022/04/01 13:04:26;;;;;;;3.80;3.40;;;;;;;;;;4926359;28;20219;-62
2022/04/01 13:07:30;;;;;;;3.93;3.53;;;;;;;;;;4924122;28;20222;-62
2022/04/01 13:09:56;;;;;;;4.10;3.70;;;;;;;;;;4849470;29;20211;-62
2022/04/01 13:12:38;;;;;;;8.30;3.97;;;;;;;;;;4848856;29;20202;-62
2022/04/01 13:15:08;;;;;;;4.03;3.63;;;;;;;;;;4881310;28;20315;-62
2022/04/01 13:17:44;;;;;;;4.07;3.77;;;;;;;;;;4923047;28;20286;-62
2022/04/01 13:20:15;;;;;;;3.87;3.47;;;;;;;;;;4919181;28;20199;-61
2022/04/01 13:22:41;;;;;;;4.83;3.70;;;;;;;;;;4930830;28;20307;-61
2022/04/01 13:25:08;;;;;;;4.13;3.67;;;;;;;;;;4918537;28;20348;-63
2022/04/01 13:27:34;;;;;;;4.20;3.77;;;;;;;;;;4922493;28;20755;-62
2022/04/01 13:30:00;;;;;;;4.07;3.70;;;;;;;;;;4912346;28;20832;-62
2022/04/01 13:32:26;;;;;;;4.17;3.60;;;;;;;;;;4911672;28;20663;-60
2022/04/01 13:34:52;;;;;;;4.67;3.50;;;;;;;;;;4906284;28;20211;-61
2022/04/01 13:37:18;;;;;;;4.60;4.07;;;;;;;;;;4895308;28;20243;-61
2022/04/01 13:39:45;;;;;;;6.50;4.20;;;;;;;;;;4914738;28;20187;-62
2022/04/01 13:42:11;;;;;;;4.10;3.70;;;;;;;;;;4915357;28;20196;-60
2022/04/01 13:44:37;;;;;;;3.97;3.67;;;;;;;;;;4912276;28;20196;-61
2022/04/01 13:47:04;;;;;;;3.90;3.50;;;;;;;;;;4912856;28;20672;-62
2022/04/01 13:49:29;;;;;;;4.80;3.47;;;;;;;;;;4914340;28;20270;-62
2022/04/01 13:51:55;;;;;;;4.07;3.70;;;;;;;;;;4912950;28;20246;-62
2022/04/01 13:54:21;;;;;;;4.03;3.57;;;;;;;;;;4911745;28;20198;-62
2022/04/01 13:56:47;;;;;;;4.90;3.57;;;;;;;;;;4909848;28;20298;-62
2022/04/01 13:59:14;;;;;;;4.03;3.63;;;;;;;;;;4911585;28;20576;-62
2022/04/01 14:01:40;;;;;;;4.00;3.60;;;;;;;;;;4910121;28;20203;-62
2022/04/01 14:04:07;;;;;;;4.37;3.97;;;;;;;;;;4908283;28;20495;-62
2022/04/01 14:06:34;;;;;;;4.50;3.90;;;;;;;;;;4907766;28;20211;-62
2022/04/01 14:08:59;;;;;;;5.63;4.20;;;;;;;;;;4921318;28;20238;-62
2022/04/01 14:11:26;;;;;;;7.40;4.70;;;;;;;;;;4923018;28;20647;-62
2022/04/01 14:13:52;;;;;;;5.43;3.60;;;;;;;;;;4923781;28;20290;-62
2022/04/01 14:16:18;;;;;;;5.07;4.10;;;;;;;;;;4920345;28;20224;-62
2022/04/01 14:18:44;;;;;;;5.10;3.73;;;;;;;;;;4927633;28;20562;-62
2022/04/01 14:21:10;;;;;;;3.93;3.63;;;;;;;;;;4917928;28;20199;-62
2022/04/01 14:23:36;;;;;;;4.30;3.90;;;;;;;;;;4928954;28;20220;-62
2022/04/01 14:26:04;;;;;;;4.43;4.03;;;;;;;;;;4920997;28;20680;-62
2022/04/01 14:28:33;;;;;;;6.77;4.23;;;;;;;;;;4925041;28;20202;-62
2022/04/01 14:31:00;;;;;;;4.47;4.07;;;;;;;;;;4920473;28;20195;-62
2022/04/01 14:33:26;;;;;;;4.23;3.70;;;;;;;;;;4923271;28;20200;-62
2022/04/01 14:35:52;;;;;;;4.23;3.83;;;;;;;;;;4916064;28;20269;-62
2022/04/01 14:38:21;;;;;;;4.97;4.23;;;;;;;;;;4930205;28;20196;-60
2022/04/01 14:40:47;;;;;;;4.40;4.00;;;;;;;;;;4926073;28;20230;-61
2022/04/01 14:43:13;;;;;;;5.07;4.43;;;;;;;;;;4924478;28;20686;-61
2022/04/01 14:45:39;;;;;;;5.23;4.23;;;;;;;;;;4925687;28;21675;-62
2022/04/01 14:48:06;;;;;;;7.20;4.43;;;;;;;;;;4916148;28;20251;-62
2022/04/01 14:50:32;;;;;;;7.40;4.57;;;;;;;;;;4924172;28;20230;-62
2022/04/01 14:52:58;;;;;;;5.20;4.70;;;;;;;;;;4914965;28;20561;-61
2022/04/01 14:55:24;;;;;;;5.27;4.77;;;;;;;;;;4921584;28;20692;-61
2022/04/01 14:57:50;;;;;;;5.60;5.10;;;;;;;;;;4921689;28;20579;-61